createdAt,value
2023-04-17T00:00:18.756Z,100686.01
2023-04-17T00:03:06.675Z,100684.54
2023-04-17T00:05:34.910Z,100684.88
2023-04-17T00:08:03.103Z,100682.81
2023-04-17T00:10:31.248Z,100677.95
2023-04-17T00:12:59.082Z,100679.74
2023-04-17T00:15:27.110Z,100676.48
2023-04-17T00:17:55.568Z,100680.02
2023-04-17T00:20:23.438Z,100679.81
2023-04-17T00:22:51.306Z,100681.67
2023-04-17T00:25:19.505Z,100676.64
2023-04-17T00:27:47.433Z,100682.14
2023-04-17T00:30:15.308Z,100678.34
2023-04-17T00:32:43.179Z,100674.73
2023-04-17T00:35:11.367Z,100674.90
2023-04-17T00:37:39.560Z,100681.90
2023-04-17T00:40:07.958Z,100681.39
2023-04-17T00:42:36.088Z,100682.86
2023-04-17T00:45:05.522Z,100685.14
2023-04-17T00:47:33.658Z,100688.27
2023-04-17T00:50:02.659Z,100691.60
2023-04-17T00:52:31.097Z,100692.64
2023-04-17T00:55:00.421Z,100697.12
2023-04-17T00:57:28.907Z,100701.40
2023-04-17T00:59:58.134Z,100704.30
2023-04-17T01:02:27.073Z,100708.27
2023-04-17T01:04:55.555Z,100703.69
2023-04-17T01:07:24.518Z,100700.95
2023-04-17T01:09:52.646Z,100701.45
2023-04-17T01:12:23.117Z,100706.63
2023-04-17T01:14:55.408Z,100703.88
2023-04-17T01:17:26.883Z,100705.28
2023-04-17T01:19:55.835Z,100702.36
2023-04-17T01:22:23.917Z,100703.77
2023-04-17T01:24:53.605Z,100708.11
2023-04-17T01:27:22.823Z,100707.80
2023-04-17T01:29:52.118Z,100707.17
2023-04-17T01:32:21.600Z,100707.20
2023-04-17T01:34:49.546Z,100704.48
2023-04-17T01:37:17.887Z,100704.34
2023-04-17T01:39:45.839Z,100705.74
2023-04-17T01:42:14.072Z,100706.27
2023-04-17T01:44:42.140Z,100705.58
2023-04-17T01:47:10.920Z,100706.11
2023-04-17T01:49:39.119Z,100707.46
2023-04-17T01:52:07.261Z,100704.05
2023-04-17T01:54:35.675Z,100707.84
2023-04-17T01:57:03.540Z,100706.30
2023-04-17T01:59:32.437Z,100711.62
2023-04-17T02:02:06.634Z,100707.11
2023-04-17T02:04:34.670Z,100710.71
2023-04-17T02:07:02.864Z,100706.42
2023-04-17T02:09:31.667Z,100711.77
2023-04-17T02:11:59.583Z,100710.58
2023-04-17T02:14:27.371Z,100713.66
2023-04-17T02:16:58.327Z,100716.94
2023-04-17T02:19:26.715Z,100715.74
2023-04-17T02:21:55.614Z,100714.22
2023-04-17T02:24:24.573Z,100718.06
2023-04-17T02:26:52.626Z,100715.31
2023-04-17T02:29:20.708Z,100716.85
2023-04-17T02:31:48.806Z,100719.93
2023-04-17T02:34:16.832Z,100715.42
2023-04-17T02:36:44.875Z,100717.33
2023-04-17T02:39:13.484Z,100721.14
2023-04-17T02:41:42.244Z,100723.71
2023-04-17T02:44:10.475Z,100720.33
2023-04-17T02:46:39.212Z,100718.46
2023-04-17T02:49:09.056Z,100718.00
2023-04-17T02:51:37.377Z,100716.98
2023-04-17T02:54:05.394Z,100720.60
2023-04-17T02:56:33.348Z,100721.10
2023-04-17T02:59:01.294Z,100723.35
2023-04-17T03:01:30.108Z,100723.70
2023-04-17T03:03:58.273Z,100721.61
2023-04-17T03:06:27.486Z,100722.05
2023-04-17T03:08:55.891Z,100728.31
2023-04-17T03:11:24.320Z,100730.10
2023-04-17T03:13:53.374Z,100730.70
2023-04-17T03:16:23.085Z,100728.23
2023-04-17T03:18:51.410Z,100731.92
2023-04-17T03:21:20.857Z,100734.64
2023-04-17T03:23:50.556Z,100737.55
2023-04-17T03:26:18.678Z,100742.35
2023-04-17T03:28:46.683Z,100743.35
2023-04-17T03:31:15.398Z,100742.47
2023-04-17T03:33:43.441Z,100742.52
2023-04-17T03:36:11.919Z,100746.33
2023-04-17T03:38:39.945Z,100743.33
2023-04-17T03:41:10.169Z,100744.45
2023-04-17T03:43:38.291Z,100743.31
2023-04-17T03:46:06.385Z,100746.45
2023-04-17T03:48:34.629Z,100742.88
2023-04-17T03:51:03.212Z,100752.67
2023-04-17T03:53:31.755Z,100752.70
2023-04-17T03:56:01.920Z,100759.14
2023-04-17T03:58:33.473Z,100758.44
2023-04-17T04:05:09.320Z,100761.79
2023-04-17T04:07:38.914Z,100765.84
2023-04-17T04:10:07.721Z,100767.33
2023-04-17T04:12:35.616Z,100765.67
2023-04-17T04:15:03.712Z,100770.07
2023-04-17T04:17:32.543Z,100772.90
2023-04-17T04:20:00.805Z,100775.35
2023-04-17T04:22:29.642Z,100777.80
2023-04-17T04:24:57.610Z,100782.19
2023-04-17T04:27:32.994Z,100784.20
2023-04-17T04:34:39.249Z,100788.59
2023-04-17T04:37:08.302Z,100789.32
2023-04-17T04:39:39.840Z,100789.88
2023-04-17T04:42:10.072Z,100788.70
2023-04-17T04:44:56.349Z,100791.52
2023-04-17T04:47:25.153Z,100796.91
2023-04-17T04:49:54.315Z,100798.01
2023-04-17T04:52:22.327Z,100802.71
2023-04-17T04:54:51.526Z,100806.39
2023-04-17T04:57:20.164Z,100802.64
2023-04-17T04:59:48.401Z,100804.27
2023-04-17T05:02:30.136Z,100802.60
2023-04-17T05:04:58.234Z,100806.23
2023-04-17T05:07:27.419Z,100804.18
2023-04-17T05:09:55.838Z,100805.44
2023-04-17T05:12:25.085Z,100807.19
2023-04-17T05:14:53.304Z,100808.45
2023-04-17T05:17:21.418Z,100810.30
2023-04-17T05:19:50.914Z,100812.90
2023-04-17T05:22:21.685Z,100815.85
2023-04-17T05:25:01.222Z,100816.23
2023-04-17T05:27:29.413Z,100814.75
2023-04-17T05:29:57.578Z,100815.45
2023-04-17T05:32:26.083Z,100819.69
2023-04-17T05:34:57.386Z,100817.83
2023-04-17T05:37:27.301Z,100815.95
2023-04-17T05:39:56.417Z,100816.19
2023-04-17T05:42:24.524Z,100819.54
2023-04-17T05:44:52.645Z,100818.36
2023-04-17T05:47:20.663Z,100822.08
2023-04-17T05:49:51.218Z,100820.73
2023-04-17T05:52:19.126Z,100817.00
2023-04-17T05:54:47.050Z,100812.31
2023-04-17T05:57:15.422Z,100814.84
2023-04-17T05:59:43.870Z,100813.84
2023-04-17T06:02:12.923Z,100815.80
2023-04-17T06:04:41.684Z,100813.55
2023-04-17T06:07:11.859Z,100811.17
2023-04-17T06:09:40.887Z,100810.68
2023-04-17T06:12:15.836Z,100813.33
2023-04-17T06:14:44.360Z,100813.63
2023-04-17T06:17:12.578Z,100816.93
2023-04-17T06:19:40.983Z,100820.25
2023-04-17T06:22:09.068Z,100827.44
2023-04-17T06:24:36.994Z,100824.51
2023-04-17T06:27:04.983Z,100828.98
2023-04-17T06:29:33.046Z,100831.01
2023-04-17T06:32:01.341Z,100827.94
2023-04-17T06:34:29.382Z,100832.59
2023-04-17T06:36:57.562Z,100828.08
2023-04-17T06:39:25.615Z,100832.61
2023-04-17T06:41:53.779Z,100827.66
2023-04-17T06:44:27.324Z,100831.86
2023-04-17T06:46:55.664Z,100837.02
2023-04-17T06:49:23.529Z,100831.95
2023-04-17T06:51:51.609Z,100833.27
2023-04-17T06:54:19.536Z,100834.45
2023-04-17T06:56:47.428Z,100836.46
2023-04-17T06:59:16.251Z,100838.50
2023-04-17T07:01:44.531Z,100842.29
2023-04-17T07:04:12.776Z,100840.83
2023-04-17T07:06:40.902Z,100845.88
2023-04-17T07:09:08.760Z,100849.36
2023-04-17T07:11:36.620Z,100847.38
2023-04-17T07:14:04.471Z,100849.99
2023-04-17T07:16:32.510Z,100848.23
2023-04-17T07:19:00.387Z,100850.80
2023-04-17T07:21:29.346Z,100852.83
2023-04-17T07:23:57.228Z,100854.60
2023-04-17T07:26:25.679Z,100850.97
2023-04-17T07:28:53.815Z,100853.23
2023-04-17T07:31:22.158Z,100854.77
2023-04-17T07:33:50.710Z,100855.90
2023-04-17T07:36:19.105Z,100858.73
2023-04-17T07:38:47.196Z,100860.58
2023-04-17T07:41:15.397Z,100858.19
2023-04-17T07:43:43.589Z,100860.23
2023-04-17T07:46:11.528Z,100856.96
2023-04-17T07:48:40.346Z,100858.38
2023-04-17T07:51:08.294Z,100864.70
2023-04-17T07:53:37.654Z,100867.98
2023-04-17T07:56:06.519Z,100868.33
2023-04-17T07:58:35.922Z,100866.13
2023-04-17T08:01:05.617Z,100868.20
2023-04-17T08:03:33.929Z,100875.98
2023-04-17T08:06:02.182Z,100871.27
2023-04-17T08:08:30.055Z,100868.61
2023-04-17T08:10:57.983Z,100871.23
2023-04-17T08:13:26.328Z,100877.16
2023-04-17T08:15:54.636Z,100883.33
2023-04-17T08:18:22.596Z,100889.21
2023-04-17T08:20:50.516Z,100886.15
2023-04-17T08:23:18.714Z,100891.27
2023-04-17T08:25:46.894Z,100891.96
2023-04-17T08:28:15.111Z,100889.17
2023-04-17T08:30:43.118Z,100891.79
2023-04-17T08:33:13.428Z,100890.91
2023-04-17T08:35:41.698Z,100894.92
2023-04-17T08:38:14.029Z,100895.96
2023-04-17T08:40:52.006Z,100894.92
2023-04-17T08:43:21.604Z,100898.39
2023-04-17T08:45:54.057Z,100904.48
2023-04-17T08:48:23.678Z,100904.65
2023-04-17T08:50:53.244Z,100904.65
2023-04-17T08:53:21.771Z,100908.64
2023-04-17T08:55:49.732Z,100908.48
2023-04-17T08:58:17.986Z,100913.68
2023-04-17T09:00:46.161Z,100911.95
2023-04-17T09:03:15.876Z,100913.67
2023-04-17T09:05:46.287Z,100917.34
2023-04-17T09:08:16.969Z,100919.95
2023-04-17T09:10:46.432Z,100926.55
2023-04-17T09:13:17.635Z,100924.45
2023-04-17T09:15:48.075Z,100927.23
2023-04-17T09:18:32.021Z,100931.91
2023-04-17T09:21:02.083Z,100927.58
2023-04-17T09:23:31.919Z,100924.80
2023-04-17T09:26:10.487Z,100930.52
2023-04-17T09:28:43.596Z,100929.66
2023-04-17T09:31:17.857Z,100927.58
2023-04-17T09:34:07.708Z,100921.16
2023-04-17T09:36:37.835Z,100919.42
2023-04-17T09:39:20.829Z,100923.06
2023-04-17T09:41:49.334Z,100924.29
2023-04-17T09:44:28.308Z,100925.16
2023-04-17T09:46:56.707Z,100927.27
2023-04-17T09:49:42.383Z,100926.55
2023-04-17T09:52:12.254Z,100930.67
2023-04-17T09:54:42.003Z,100928.89
2023-04-17T09:57:11.187Z,100931.85
2023-04-17T09:59:41.230Z,100931.20
2023-04-17T10:02:10.259Z,100932.63
2023-04-17T10:04:42.161Z,100933.50
2023-04-17T10:07:11.014Z,100938.87
2023-04-17T10:09:42.908Z,100939.02
2023-04-17T10:12:14.716Z,100933.64
2023-04-17T10:14:48.801Z,100937.48
2023-04-17T10:17:31.871Z,100934.46
2023-04-17T10:20:33.610Z,100934.80
2023-04-17T10:23:28.980Z,100934.07
2023-04-17T10:26:24.963Z,100929.66
2023-04-17T10:28:54.288Z,100928.70
2023-04-17T10:31:25.822Z,100930.24
2023-04-17T10:33:54.575Z,100931.30
2023-04-17T10:36:37.853Z,100926.80
2023-04-17T10:39:17.278Z,100922.27
2023-04-17T10:42:05.487Z,100917.75
2023-04-17T10:44:34.289Z,100916.36
2023-04-17T10:50:10.604Z,100915.16
2023-04-17T10:52:42.313Z,100915.16
2023-04-17T10:55:25.221Z,100906.55
2023-04-17T10:58:11.983Z,100905.02
2023-04-17T11:04:37.248Z,100910.92
2023-04-17T11:07:05.750Z,100909.56
2023-04-17T11:09:34.564Z,100907.77
2023-04-17T11:12:05.655Z,100903.42
2023-04-17T11:14:33.706Z,100901.80
2023-04-17T11:17:02.363Z,100901.55
2023-04-17T11:19:32.314Z,100901.02
2023-04-17T11:22:02.874Z,100899.31
2023-04-17T11:24:32.436Z,100902.91
2023-04-17T11:27:02.240Z,100895.55
2023-04-17T11:29:30.428Z,100897.39
2023-04-17T11:32:00.620Z,100898.04
2023-04-17T11:34:28.565Z,100902.60
2023-04-17T11:36:57.688Z,100899.13
2023-04-17T11:39:31.308Z,100904.36
2023-04-17T11:41:59.963Z,100901.02
2023-04-17T11:44:29.304Z,100905.80
2023-04-17T11:47:01.522Z,100898.05
2023-04-17T11:49:37.367Z,100898.44
2023-04-17T11:52:06.303Z,100889.01
2023-04-17T11:54:38.405Z,100889.95
2023-04-17T11:57:15.712Z,100895.38
2023-04-17T11:59:45.476Z,100894.16
2023-04-17T12:02:15.283Z,100892.57
2023-04-17T12:04:43.603Z,100895.99
2023-04-17T12:07:23.003Z,100897.67
2023-04-17T12:09:57.909Z,100897.57
2023-04-17T12:12:25.886Z,100904.81
2023-04-17T12:14:53.811Z,100909.75
2023-04-17T12:17:22.247Z,100904.88
2023-04-17T12:19:50.349Z,100909.96
2023-04-17T12:22:18.726Z,100916.70
2023-04-17T12:24:46.583Z,100919.55
2023-04-17T12:27:14.598Z,100922.73
2023-04-17T12:29:44.809Z,100915.86
2023-04-17T12:32:14.079Z,100918.98
2023-04-17T12:34:42.095Z,100918.71
2023-04-17T12:37:10.493Z,100916.13
2023-04-17T12:39:38.529Z,100914.41
2023-04-17T12:42:06.412Z,100913.88
2023-04-17T12:44:34.414Z,100910.57
2023-04-17T12:47:02.285Z,100909.99
2023-04-17T12:49:30.547Z,100917.98
2023-04-17T12:52:00.346Z,100916.64
2023-04-17T12:54:29.628Z,100919.80
2023-04-17T12:56:57.736Z,100919.61
2023-04-17T12:59:25.676Z,100922.56
2023-04-17T13:01:53.959Z,100918.59
2023-04-17T13:04:22.590Z,100919.96
2023-04-17T13:06:51.134Z,100921.02
2023-04-17T13:09:20.152Z,100915.75
2023-04-17T13:11:48.076Z,100914.33
2023-04-17T13:14:16.069Z,100912.55
2023-04-17T13:16:44.300Z,100913.53
2023-04-17T13:19:12.528Z,100912.25
2023-04-17T13:21:41.039Z,100911.63
2023-04-17T13:24:14.530Z,100909.31
2023-04-17T13:26:42.862Z,100910.77
2023-04-17T13:29:11.384Z,100911.71
2023-04-17T13:31:39.619Z,100908.59
2023-04-17T13:34:33.226Z,100905.40
2023-04-17T13:37:01.338Z,100909.75
2023-04-17T13:39:29.696Z,100913.05
2023-04-17T13:41:58.288Z,100912.31
2023-04-17T13:44:26.292Z,100915.69
2023-04-17T13:46:55.195Z,100920.85
2023-04-17T13:49:23.183Z,100919.50
2023-04-17T13:51:51.074Z,100919.89
2023-04-17T13:54:19.584Z,100921.41
2023-04-17T13:56:48.240Z,100919.26
2023-04-17T13:59:16.970Z,100922.06
2023-04-17T14:01:45.279Z,100917.52
2023-04-17T14:04:14.006Z,100918.12
2023-04-17T14:06:44.283Z,100912.33
2023-04-17T14:09:13.052Z,100917.83
2023-04-17T14:11:41.374Z,100920.06
2023-04-17T14:14:12.884Z,100920.95
2023-04-17T14:16:42.273Z,100918.39
2023-04-17T14:19:13.960Z,100922.33
2023-04-17T14:21:43.237Z,100921.50
2023-04-17T14:24:11.348Z,100923.40
2023-04-17T14:26:40.128Z,100921.09
2023-04-17T14:29:09.055Z,100916.17
2023-04-17T14:31:37.084Z,100917.71
2023-04-17T14:34:05.272Z,100917.70
2023-04-17T14:36:34.584Z,100915.84
2023-04-17T14:39:02.427Z,100921.16
2023-04-17T14:41:34.150Z,100919.80
2023-04-17T14:44:02.379Z,100918.67
2023-04-17T14:46:31.006Z,100918.94
2023-04-17T14:48:59.256Z,100922.31
2023-04-17T14:51:30.174Z,100917.62
2023-04-17T14:53:58.406Z,100915.80
2023-04-17T14:56:26.532Z,100913.84
2023-04-17T14:58:54.541Z,100910.45
2023-04-17T15:01:22.629Z,100917.06
2023-04-17T15:03:51.260Z,100916.27
2023-04-17T15:06:20.036Z,100918.95
2023-04-17T15:08:48.446Z,100913.84
2023-04-17T15:11:18.147Z,100916.70
2023-04-17T15:13:46.038Z,100915.71
2023-04-17T15:16:19.797Z,100914.41
2023-04-17T15:18:51.210Z,100918.73
2023-04-17T15:21:19.719Z,100922.70
2023-04-17T15:23:47.608Z,100921.85
2023-04-17T15:26:15.805Z,100923.61
2023-04-17T15:28:43.731Z,100923.50
2023-04-17T15:31:11.573Z,100923.00
2023-04-17T15:33:39.569Z,100920.77
2023-04-17T15:36:07.715Z,100922.14
2023-04-17T15:38:35.676Z,100920.01
2023-04-17T15:41:03.735Z,100925.08
2023-04-17T15:43:31.857Z,100920.55
2023-04-17T15:46:00.244Z,100924.60
2023-04-17T15:48:28.212Z,100921.66
2023-04-17T15:50:56.069Z,100918.67
2023-04-17T15:53:24.106Z,100923.48
2023-04-17T15:55:52.776Z,100927.00
2023-04-17T15:58:20.688Z,100928.59
2023-04-17T16:00:48.835Z,100926.48
2023-04-17T16:03:17.514Z,100932.93
2023-04-17T16:05:45.943Z,100936.45
2023-04-17T16:08:14.796Z,100934.17
2023-04-17T16:10:42.863Z,100934.21
2023-04-17T16:13:11.071Z,100934.24
2023-04-17T16:15:39.338Z,100937.58
2023-04-17T16:18:07.986Z,100934.96
2023-04-17T16:20:36.309Z,100936.72
2023-04-17T16:23:04.705Z,100941.92
2023-04-17T16:25:33.405Z,100939.50
2023-04-17T16:28:01.845Z,100941.30
2023-04-17T16:30:30.055Z,100941.48
2023-04-17T16:32:58.489Z,100943.05
2023-04-17T16:35:27.580Z,100940.80
2023-04-17T16:37:57.175Z,100935.95
2023-04-17T16:40:26.925Z,100944.29
2023-04-17T16:42:55.934Z,100939.91
2023-04-17T16:45:24.149Z,100944.96
2023-04-17T16:47:52.887Z,100945.83
2023-04-17T16:50:22.334Z,100951.91
2023-04-17T16:52:51.878Z,100955.39
2023-04-17T16:55:20.363Z,100956.09
2023-04-17T16:57:48.461Z,100963.21
2023-04-17T17:00:16.831Z,100963.91
2023-04-17T17:02:45.091Z,100967.71
2023-04-17T17:05:16.324Z,100969.98
2023-04-17T17:07:44.770Z,100975.02
2023-04-17T17:10:13.351Z,100976.23
2023-04-17T17:12:41.944Z,100978.14
2023-04-17T17:15:10.888Z,100980.73
2023-04-17T17:17:39.524Z,100983.69
2023-04-17T17:20:08.476Z,100982.11
2023-04-17T17:22:36.653Z,100980.04
2023-04-17T17:25:05.606Z,100989.23
2023-04-17T17:27:34.181Z,100988.34
2023-04-17T17:30:03.413Z,100986.95
2023-04-17T17:32:31.583Z,100992.52
2023-04-17T17:34:59.802Z,100993.19
2023-04-17T17:37:28.456Z,100999.11
2023-04-17T17:39:56.908Z,100998.04
2023-04-17T17:42:24.964Z,101005.80
2023-04-17T17:44:53.117Z,101003.88
2023-04-17T17:47:21.310Z,101005.06
2023-04-17T17:49:49.587Z,101010.39
2023-04-17T17:52:17.687Z,101009.68
2023-04-17T17:54:45.974Z,101014.38
2023-04-17T17:57:13.998Z,101018.05
2023-04-17T17:59:42.911Z,101023.74
2023-04-17T18:02:11.247Z,101026.98
2023-04-17T18:04:39.830Z,101025.52
2023-04-17T18:07:08.419Z,101026.52
2023-04-17T18:09:37.479Z,101027.91
2023-04-17T18:12:06.333Z,101028.45
2023-04-17T18:14:35.687Z,101027.41
2023-04-17T18:17:04.482Z,101026.88
2023-04-17T18:19:33.526Z,101028.52
2023-04-17T18:22:01.809Z,101033.48
2023-04-17T18:24:30.798Z,101034.08
2023-04-17T18:26:59.011Z,101039.73
2023-04-17T18:29:29.494Z,101041.98
2023-04-17T18:31:58.526Z,101043.85
2023-04-17T18:34:26.756Z,101048.20
2023-04-17T18:36:55.783Z,101047.63
2023-04-17T18:39:24.177Z,101053.31
2023-04-17T18:41:52.972Z,101053.00
2023-04-17T18:44:22.593Z,101051.89
2023-04-17T18:46:51.352Z,101049.30
2023-04-17T18:49:19.741Z,101054.11
2023-04-17T18:51:48.089Z,101052.34
2023-04-17T18:54:19.658Z,101052.83
2023-04-17T18:56:48.058Z,101057.69
2023-04-17T18:59:17.068Z,101056.60
2023-04-17T19:04:35.307Z,101059.08
2023-04-17T19:07:03.696Z,101063.17
2023-04-17T19:09:32.123Z,101061.72
2023-04-17T19:12:00.876Z,101060.10
2023-04-17T19:14:32.596Z,101060.92
2023-04-17T19:17:00.572Z,101060.90
2023-04-17T19:19:29.554Z,101060.56
2023-04-17T19:21:58.024Z,101060.34
2023-04-17T19:24:26.498Z,101064.81
2023-04-17T19:26:54.658Z,101065.64
2023-04-17T19:29:23.154Z,101065.58
2023-04-17T19:31:51.043Z,101068.96
2023-04-17T19:34:19.462Z,101065.24
2023-04-17T19:36:47.418Z,101068.46
2023-04-17T19:39:15.886Z,101072.39
2023-04-17T19:41:50.884Z,101071.16
2023-04-17T19:44:19.667Z,101074.25
2023-04-17T19:46:48.076Z,101072.47
2023-04-17T19:49:16.475Z,101071.08
2023-04-17T19:51:44.793Z,101070.35
2023-04-17T19:54:13.262Z,101071.21
2023-04-17T19:56:41.482Z,101065.61
2023-04-17T19:59:12.560Z,101067.37
2023-04-17T20:01:43.435Z,101064.98
2023-04-17T20:04:11.941Z,101064.96
2023-04-17T20:06:40.925Z,101067.88
2023-04-17T20:09:11.910Z,101066.79
2023-04-17T20:11:41.211Z,101069.41
2023-04-17T20:14:09.104Z,101066.81
2023-04-17T20:16:37.128Z,101070.80
2023-04-17T20:19:05.100Z,101066.09
2023-04-17T20:21:33.151Z,101069.92
2023-04-17T20:24:01.076Z,101071.19
2023-04-17T20:26:29.025Z,101071.84
2023-04-17T20:28:56.996Z,101073.59
2023-04-17T20:31:24.877Z,101076.54
2023-04-17T20:33:53.413Z,101071.09
2023-04-17T20:36:21.304Z,101076.55
2023-04-17T20:38:49.143Z,101073.05
2023-04-17T20:41:18.060Z,101073.06
2023-04-17T20:43:46.096Z,101074.43
2023-04-17T20:46:14.035Z,101075.69
2023-04-17T20:48:41.976Z,101075.02
2023-04-17T20:51:09.886Z,101080.38
2023-04-17T20:53:37.734Z,101084.88
2023-04-17T20:56:05.788Z,101086.19
2023-04-17T20:58:33.644Z,101086.34
2023-04-17T21:01:02.751Z,101087.36
2023-04-17T21:03:31.828Z,101089.05
2023-04-17T21:06:01.017Z,101088.90
2023-04-17T21:08:28.930Z,101087.11
2023-04-17T21:10:57.052Z,101090.20
2023-04-17T21:13:25.135Z,101092.25
2023-04-17T21:15:53.608Z,101097.41
2023-04-17T21:18:21.682Z,101100.65
2023-04-17T21:20:49.553Z,101105.91
2023-04-17T21:23:18.129Z,101106.91
2023-04-17T21:25:46.389Z,101107.09
2023-04-17T21:28:14.441Z,101112.89
2023-04-17T21:30:42.323Z,101111.13
2023-04-17T21:33:10.301Z,101108.08
2023-04-17T21:35:38.731Z,101111.73
2023-04-17T21:38:06.772Z,101107.73
2023-04-17T21:40:36.841Z,101104.25
2023-04-17T21:43:05.218Z,101109.30
2023-04-17T21:45:33.310Z,101102.16
2023-04-17T21:48:01.256Z,101102.84
2023-04-17T21:50:29.167Z,101103.13
2023-04-17T21:52:57.092Z,101100.09
2023-04-17T21:55:25.014Z,101099.37
2023-04-17T21:57:54.695Z,101095.73
2023-04-17T22:00:22.773Z,101097.20
2023-04-17T22:02:50.884Z,101094.88
2023-04-17T22:05:19.072Z,101095.88
2023-04-17T22:07:54.365Z,101099.05
2023-04-17T22:10:24.303Z,101104.16
2023-04-17T22:12:52.312Z,101098.72
2023-04-17T22:15:20.539Z,101104.16
2023-04-17T22:17:48.627Z,101103.98
2023-04-17T22:20:16.709Z,101102.33
2023-04-17T22:22:46.730Z,101105.05
2023-04-17T22:25:14.649Z,101104.02
2023-04-17T22:27:42.846Z,101099.39
2023-04-17T22:30:10.995Z,101102.89
2023-04-17T22:32:39.059Z,101104.92
2023-04-17T22:35:08.440Z,101103.23
2023-04-17T22:37:36.403Z,101105.88
2023-04-17T22:40:04.804Z,101103.62
2023-04-17T22:42:32.794Z,101103.40
2023-04-17T22:45:00.717Z,101108.36
2023-04-17T22:47:28.971Z,101107.73
2023-04-17T22:49:57.667Z,101105.11
2023-04-17T22:52:25.694Z,101105.54
2023-04-17T22:54:54.024Z,101104.36
2023-04-17T22:57:21.888Z,101104.98
2023-04-17T22:59:49.721Z,101106.98
2023-04-17T23:02:17.530Z,101107.19
2023-04-17T23:04:45.608Z,101106.55
2023-04-17T23:07:13.517Z,101111.88
2023-04-17T23:09:41.293Z,101101.54
2023-04-17T23:12:09.129Z,101104.28
2023-04-17T23:14:37.055Z,101107.38
2023-04-17T23:17:06.557Z,101102.67
2023-04-17T23:19:34.456Z,101105.41
2023-04-17T23:22:02.430Z,101101.51
2023-04-17T23:24:51.595Z,101103.52
2023-04-17T23:27:19.892Z,101105.09
2023-04-17T23:29:48.070Z,101102.07
2023-04-17T23:32:16.230Z,101102.33
2023-04-17T23:34:44.138Z,101101.52
2023-04-17T23:37:11.994Z,101101.27
2023-04-17T23:39:40.124Z,101101.74
2023-04-17T23:42:08.805Z,101097.86
2023-04-17T23:44:36.662Z,101095.43
2023-04-17T23:47:04.737Z,101095.83
2023-04-17T23:49:34.005Z,101097.70
2023-04-17T23:52:02.359Z,101098.66
2023-04-17T23:54:30.308Z,101099.52
2023-04-17T23:56:58.191Z,101096.35
2023-04-17T23:59:26.127Z,101097.96
